Nagasaki, Japan
Current Conditions -  °F | °C
As of 7:00 PM on Sunday 23 Nov 2014 (Local Time) from RJFU Reporting Station
Broken Clouds Broken Clouds  
Wind Chill: 61°   Ceiling: 10000
Heat Index: 61°   Visibility: 6mi
Dew Point: 55°   Wind: 3mph
Humidity: 82%   Direction: 60°ENE
Pressure: 30.18"   Gusts: NA
Location:  32.75°N, 129.88°E
Report Text: RJFU 231000Z 06003KT 9999 FEW040 SCT090 BKN100 16/13 Q1022
Loading
Personal Weather Stations






























Interactive Weather Map New forecast layout! Learn more

10-Day Weather Forecast

Advertisements
Track Severe Weather on mobile